Time;durP1;ratioP1;P1;durP2;ratioP2;P2;SDS_P1;SDS_P2;PMS_P1;PMS_P2;Temp;Humidity;BMP_temperature;BMP_pressure;BME280_temperature;BME280_humidity;BME280_pressure;Samples;Min_cycle;Max_cycle;Signal;HPM_P1;HPM_P2
2023/09/24 00:00:44;;;;;;;;;;;11.50;99.90;;;;;;5110108;28;19920;-73
2023/09/24 00:03:10;;;;;;;;;;;11.50;99.90;;;;;;5109969;28;19926;-73
2023/09/24 00:05:38;;;;;;;;;;;11.50;99.90;;;;;;5113009;28;20452;-73
2023/09/24 00:08:04;;;;;;;;;;;11.50;99.90;;;;;;5111796;28;19971;-72
2023/09/24 00:10:30;;;;;;;;;;;11.50;99.90;;;;;;5113102;28;19958;-72
2023/09/24 00:12:56;;;;;;;;;;;11.50;99.90;;;;;;5111792;27;19929;-73
2023/09/24 00:15:21;;;;;;;;;;;11.50;99.90;;;;;;5112639;28;19948;-73
2023/09/24 00:17:47;;;;;;;;;;;11.50;99.90;;;;;;5110789;28;19928;-73
2023/09/24 00:20:15;;;;;;;;;;;11.50;99.90;;;;;;5111742;28;19920;-73
2023/09/24 00:22:41;;;;;;;;;;;11.50;99.90;;;;;;5111728;28;19931;-73
2023/09/24 00:25:06;;;;;;;;;;;11.50;99.90;;;;;;5106049;28;20180;-73
2023/09/24 00:27:32;;;;;;;;;;;11.40;99.90;;;;;;5112768;28;19970;-73
2023/09/24 00:29:58;;;;;;;;;;;11.40;99.90;;;;;;5110912;27;19934;-73
2023/09/24 00:32:24;;;;;;;;;;;11.30;99.90;;;;;;5111951;28;19927;-73
2023/09/24 00:34:49;;;;;;;;;;;11.20;99.90;;;;;;5113251;28;19919;-73
2023/09/24 00:37:15;;;;;;;;;;;11.20;99.90;;;;;;5112041;28;19927;-72
2023/09/24 00:39:40;;;;;;;;;;;11.10;99.90;;;;;;5110703;27;19928;-72
2023/09/24 00:42:09;;;;;;;;;;;11.00;99.90;;;;;;5111827;28;19924;-73
2023/09/24 00:44:35;;;;;;;;;;;11.00;99.90;;;;;;5111835;28;20441;-73
2023/09/24 00:47:02;;;;;;;;;;;10.90;99.90;;;;;;5111556;28;20722;-73
2023/09/24 00:49:29;;;;;;;;;;;10.90;99.90;;;;;;5108518;28;20414;-73
2023/09/24 00:51:54;;;;;;;;;;;10.90;99.90;;;;;;5111402;28;19945;-73
2023/09/24 00:54:21;;;;;;;;;;;10.90;99.90;;;;;;5111657;28;19919;-73
2023/09/24 00:56:46;;;;;;;;;;;10.80;99.90;;;;;;5110832;28;19935;-73
2023/09/24 00:59:12;;;;;;;;;;;10.80;99.90;;;;;;5111217;28;19931;-72
2023/09/24 01:01:38;;;;;;;;;;;10.80;99.90;;;;;;5110586;28;19930;-73
2023/09/24 01:04:07;;;;;;;;;;;10.80;99.90;;;;;;5110928;28;20002;-73
2023/09/24 01:06:34;;;;;;;;;;;10.80;99.90;;;;;;5110549;28;20003;-73
2023/09/24 01:08:59;;;;;;;;;;;10.70;99.90;;;;;;5105429;28;20018;-74
2023/09/24 01:11:27;;;;;;;;;;;10.60;99.90;;;;;;5109858;28;20014;-73
2023/09/24 01:13:52;;;;;;;;;;;10.60;99.90;;;;;;5111047;28;20006;-74
2023/09/24 01:16:18;;;;;;;;;;;10.50;99.90;;;;;;5110929;28;20680;-73
2023/09/24 01:18:44;;;;;;;;;;;10.50;99.90;;;;;;5109721;28;19929;-73
2023/09/24 01:21:14;;;;;;;;;;;10.40;99.90;;;;;;5110655;28;19924;-74
2023/09/24 01:23:42;;;;;;;;;;;10.40;99.90;;;;;;5109703;28;19973;-73
2023/09/24 01:26:10;;;;;;;;;;;10.40;99.90;;;;;;5110367;28;19928;-73
2023/09/24 01:28:37;;;;;;;;;;;10.30;99.90;;;;;;5113276;27;19955;-73
2023/09/24 01:31:02;;;;;;;;;;;10.30;99.90;;;;;;5110381;27;19924;-73
2023/09/24 01:33:31;;;;;;;;;;;10.20;99.90;;;;;;5110816;28;19924;-73
2023/09/24 01:35:57;;;;;;;;;;;10.20;99.90;;;;;;5110866;28;19926;-73
2023/09/24 01:38:22;;;;;;;;;;;10.20;99.90;;;;;;5111518;28;20006;-73
2023/09/24 01:40:49;;;;;;;;;;;10.20;99.90;;;;;;5109391;28;20379;-73
2023/09/24 01:43:14;;;;;;;;;;;10.20;99.90;;;;;;5110202;28;20677;-73
2023/09/24 01:45:40;;;;;;;;;;;10.30;99.90;;;;;;5110551;28;19985;-73
2023/09/24 01:48:09;;;;;;;;;;;10.30;99.90;;;;;;5107980;28;20047;-73
2023/09/24 01:50:36;;;;;;;;;;;10.30;99.90;;;;;;5107108;28;19932;-73
2023/09/24 01:53:04;;;;;;;;;;;10.40;99.90;;;;;;5109243;28;20391;-74
2023/09/24 01:55:29;;;;;;;;;;;10.30;99.90;;;;;;5109613;28;19927;-73
2023/09/24 01:57:56;;;;;;;;;;;10.30;99.90;;;;;;5108276;28;19924;-73
2023/09/24 02:00:23;;;;;;;;;;;10.30;99.90;;;;;;5110126;28;19943;-73
2023/09/24 02:02:56;;;;;;;;;;;10.30;99.90;;;;;;5106091;28;20018;-73
2023/09/24 02:05:25;;;;;;;;;;;10.20;99.90;;;;;;5107124;28;19927;-73
2023/09/24 02:07:50;;;;;;;;;;;10.10;99.90;;;;;;5110320;28;20285;-73
2023/09/24 02:10:18;;;;;;;;;;;10.00;99.90;;;;;;5109488;28;19923;-73
2023/09/24 02:12:45;;;;;;;;;;;10.10;99.90;;;;;;5107515;28;19971;-73
2023/09/24 02:15:17;;;;;;;;;;;10.00;99.90;;;;;;5110020;28;20442;-73
2023/09/24 02:17:48;;;;;;;;;;;10.00;99.90;;;;;;5110428;28;19927;-73
2023/09/24 02:20:22;;;;;;;;;;;9.90;99.90;;;;;;5108919;28;20030;-73
2023/09/24 02:22:56;;;;;;;;;;;9.80;99.90;;;;;;5108503;28;19920;-73
2023/09/24 02:25:23;;;;;;;;;;;9.80;99.90;;;;;;5107229;28;19985;-73
2023/09/24 02:27:50;;;;;;;;;;;9.70;99.90;;;;;;5109752;28;19971;-73
2023/09/24 02:30:16;;;;;;;;;;;9.70;99.90;;;;;;5112074;27;20369;-73
2023/09/24 02:32:42;;;;;;;;;;;9.60;99.90;;;;;;5106986;28;19927;-74
2023/09/24 02:35:11;;;;;;;;;;;9.60;99.90;;;;;;5108636;28;20254;-74
2023/09/24 02:37:38;;;;;;;;;;;9.60;99.90;;;;;;5110467;28;20267;-73
2023/09/24 02:40:14;;;;;;;;;;;9.80;99.90;;;;;;5109839;28;20680;-74
2023/09/24 02:42:40;;;;;;;;;;;9.90;99.90;;;;;;5109800;28;19946;-73
2023/09/24 02:45:08;;;;;;;;;;;10.00;99.90;;;;;;5106880;28;19924;-74
2023/09/24 02:47:34;;;;;;;;;;;10.20;99.90;;;;;;5108987;28;19964;-73
2023/09/24 02:49:59;;;;;;;;;;;10.30;99.90;;;;;;5109512;28;20003;-73
2023/09/24 02:52:25;;;;;;;;;;;10.30;99.90;;;;;;5109414;28;20381;-73
2023/09/24 02:54:50;;;;;;;;;;;10.40;99.90;;;;;;5108621;28;20420;-74
2023/09/24 02:57:16;;;;;;;;;;;10.40;99.90;;;;;;5108441;28;19946;-74
2023/09/24 02:59:42;;;;;;;;;;;10.50;99.90;;;;;;5108702;28;19946;-74
2023/09/24 03:02:07;;;;;;;;;;;10.60;99.90;;;;;;5109617;28;19928;-74
2023/09/24 03:04:34;;;;;;;;;;;10.70;99.90;;;;;;5107558;28;20282;-74
2023/09/24 03:06:59;;;;;;;;;;;10.70;99.90;;;;;;5109682;28;19919;-74
2023/09/24 03:09:25;;;;;;;;;;;10.70;99.90;;;;;;5108773;28;19946;-74
2023/09/24 03:11:51;;;;;;;;;;;10.70;99.90;;;;;;5109643;28;19927;-73
2023/09/24 03:14:17;;;;;;;;;;;10.70;99.90;;;;;;5108315;28;20058;-74
2023/09/24 03:16:42;;;;;;;;;;;10.70;99.90;;;;;;5107337;28;20198;-74
2023/09/24 03:19:09;;;;;;;;;;;10.70;99.90;;;;;;5109046;28;20360;-74
2023/09/24 03:21:35;;;;;;;;;;;10.60;99.90;;;;;;5109613;28;19926;-74
2023/09/24 03:24:02;;;;;;;;;;;10.70;99.90;;;;;;5109537;28;19923;-74
2023/09/24 03:26:28;;;;;;;;;;;10.70;99.90;;;;;;5107802;28;19919;-74
2023/09/24 03:28:53;;;;;;;;;;;10.80;99.90;;;;;;5112321;28;19928;-74
2023/09/24 03:31:19;;;;;;;;;;;10.90;99.90;;;;;;5108764;28;19923;-74
2023/09/24 03:33:44;;;;;;;;;;;11.00;99.90;;;;;;5109488;28;19958;-74
2023/09/24 03:36:10;;;;;;;;;;;11.10;99.90;;;;;;5106773;28;19923;-73
2023/09/24 03:38:36;;;;;;;;;;;11.10;99.90;;;;;;5111225;28;20396;-74
2023/09/24 03:41:03;;;;;;;;;;;11.20;99.90;;;;;;5112995;28;19943;-74
2023/09/24 03:43:29;;;;;;;;;;;11.20;99.90;;;;;;5112289;28;20006;-74
2023/09/24 03:45:55;;;;;;;;;;;11.30;99.90;;;;;;5111385;28;19931;-74
2023/09/24 03:48:21;;;;;;;;;;;11.30;99.90;;;;;;5112597;28;19934;-74
2023/09/24 03:50:47;;;;;;;;;;;11.20;99.90;;;;;;5112862;28;20388;-74
2023/09/24 03:53:13;;;;;;;;;;;11.20;99.90;;;;;;5113004;28;19923;-74
2023/09/24 03:55:39;;;;;;;;;;;11.10;99.90;;;;;;5113783;28;20377;-74
2023/09/24 03:58:05;;;;;;;;;;;11.10;99.90;;;;;;5110594;28;19920;-73
2023/09/24 04:00:31;;;;;;;;;;;11.10;99.90;;;;;;5112423;28;19928;-74
2023/09/24 04:02:57;;;;;;;;;;;11.10;99.90;;;;;;5113059;28;19985;-73
2023/09/24 04:05:23;;;;;;;;;;;11.10;99.90;;;;;;5112869;28;19923;-74
2023/09/24 04:07:50;;;;;;;;;;;11.00;99.90;;;;;;5112081;28;19930;-73
2023/09/24 04:10:16;;;;;;;;;;;11.00;99.90;;;;;;5111580;28;19973;-74
2023/09/24 04:12:43;;;;;;;;;;;10.90;99.90;;;;;;5111083;28;19924;-74
2023/09/24 04:15:08;;;;;;;;;;;10.90;99.90;;;;;;5111957;28;20032;-74
2023/09/24 04:17:36;;;;;;;;;;;10.90;99.90;;;;;;5110656;28;20002;-74
2023/09/24 04:20:03;;;;;;;;;;;10.80;99.90;;;;;;5112500;28;19966;-74
2023/09/24 04:22:29;;;;;;;;;;;10.80;99.90;;;;;;5111674;28;19924;-74
2023/09/24 04:24:54;;;;;;;;;;;10.80;99.90;;;;;;5112598;28;19924;-74
2023/09/24 04:27:21;;;;;;;;;;;10.80;99.90;;;;;;5112265;28;19923;-74
2023/09/24 04:29:47;;;;;;;;;;;10.80;99.90;;;;;;5113056;27;19943;-74
2023/09/24 04:32:12;;;;;;;;;;;10.70;99.90;;;;;;5111706;28;20329;-74
2023/09/24 04:34:38;;;;;;;;;;;10.70;99.90;;;;;;5113087;28;19920;-74
2023/09/24 04:37:04;;;;;;;;;;;10.70;99.90;;;;;;5110778;28;19930;-74
2023/09/24 04:39:29;;;;;;;;;;;10.70;99.90;;;;;;5109144;28;20019;-74
2023/09/24 04:41:55;;;;;;;;;;;10.70;99.90;;;;;;5110114;28;20320;-73
2023/09/24 04:44:20;;;;;;;;;;;10.50;99.90;;;;;;5111068;28;20360;-73
2023/09/24 04:46:46;;;;;;;;;;;10.50;99.90;;;;;;5112505;28;19927;-74
2023/09/24 04:49:11;;;;;;;;;;;10.50;99.90;;;;;;5109921;28;19938;-74
2023/09/24 04:51:37;;;;;;;;;;;10.50;99.90;;;;;;5111843;28;19981;-74
2023/09/24 04:54:03;;;;;;;;;;;10.50;99.90;;;;;;5112163;28;19923;-74
2023/09/24 04:56:29;;;;;;;;;;;10.40;99.90;;;;;;5111114;28;19920;-74
2023/09/24 04:58:54;;;;;;;;;;;10.40;99.90;;;;;;5112420;28;19923;-74
2023/09/24 05:01:20;;;;;;;;;;;10.40;99.90;;;;;;5110116;28;19925;-74
2023/09/24 05:03:47;;;;;;;;;;;10.40;99.90;;;;;;5111529;28;20011;-74
2023/09/24 05:06:13;;;;;;;;;;;10.30;99.90;;;;;;5111431;28;20010;-74
2023/09/24 05:08:39;;;;;;;;;;;10.20;99.90;;;;;;5111252;28;20027;-74
2023/09/24 05:11:04;;;;;;;;;;;10.20;99.90;;;;;;5109823;28;19923;-74
2023/09/24 05:13:30;;;;;;;;;;;10.20;99.90;;;;;;5109174;28;19950;-74
2023/09/24 05:15:59;;;;;;;;;;;10.20;99.90;;;;;;5110957;28;20388;-74
2023/09/24 05:18:29;;;;;;;;;;;10.20;99.90;;;;;;5110248;28;19934;-73
2023/09/24 05:20:55;;;;;;;;;;;10.20;99.90;;;;;;5109150;28;19924;-74
2023/09/24 05:23:21;;;;;;;;;;;10.20;99.90;;;;;;5110628;28;19924;-74
2023/09/24 05:25:46;;;;;;;;;;;10.30;99.90;;;;;;5109715;28;20277;-74
2023/09/24 05:28:13;;;;;;;;;;;10.30;99.90;;;;;;5110381;28;20008;-74
2023/09/24 05:30:42;;;;;;;;;;;10.20;99.90;;;;;;5113018;27;19920;-73
2023/09/24 05:33:08;;;;;;;;;;;10.20;99.90;;;;;;5109383;28;19923;-73
2023/09/24 05:35:33;;;;;;;;;;;10.20;99.90;;;;;;5109993;28;20486;-74
2023/09/24 05:37:59;;;;;;;;;;;10.20;99.90;;;;;;5111588;28;19924;-74
2023/09/24 05:40:25;;;;;;;;;;;10.30;99.90;;;;;;5091571;28;19931;-74
2023/09/24 05:42:50;;;;;;;;;;;10.20;99.90;;;;;;5110520;28;19926;-74
2023/09/24 05:45:16;;;;;;;;;;;10.20;99.90;;;;;;5110330;28;20060;-74
2023/09/24 05:47:42;;;;;;;;;;;10.20;99.90;;;;;;5110731;28;19923;-74
2023/09/24 05:50:07;;;;;;;;;;;10.30;99.90;;;;;;5110248;28;19931;-72
2023/09/24 05:52:33;;;;;;;;;;;10.40;99.90;;;;;;5108984;28;19958;-74
2023/09/24 05:54:58;;;;;;;;;;;10.30;99.90;;;;;;5111126;28;19928;-74
2023/09/24 05:57:27;;;;;;;;;;;10.50;99.90;;;;;;5110437;28;19996;-74
2023/09/24 05:59:56;;;;;;;;;;;10.50;99.90;;;;;;5110057;28;19928;-74
2023/09/24 06:02:25;;;;;;;;;;;10.50;99.90;;;;;;5108543;28;20663;-74
2023/09/24 06:04:51;;;;;;;;;;;10.50;99.90;;;;;;5109301;28;20140;-74
2023/09/24 06:07:17;;;;;;;;;;;10.50;99.90;;;;;;5110370;28;20381;-73
2023/09/24 06:09:43;;;;;;;;;;;10.50;99.90;;;;;;5107649;28;19927;-73
2023/09/24 06:12:08;;;;;;;;;;;10.50;99.90;;;;;;5092554;28;19927;-73
2023/09/24 06:14:34;;;;;;;;;;;10.50;99.90;;;;;;5107295;28;20476;-73
2023/09/24 06:16:59;;;;;;;;;;;10.50;99.90;;;;;;5110047;28;20395;-73
2023/09/24 06:19:25;;;;;;;;;;;10.50;99.90;;;;;;5109438;28;19930;-73
2023/09/24 06:21:51;;;;;;;;;;;10.50;99.90;;;;;;5108918;28;19938;-74
2023/09/24 06:24:17;;;;;;;;;;;10.50;99.90;;;;;;5108428;28;19965;-74
2023/09/24 06:26:42;;;;;;;;;;;10.60;99.90;;;;;;5107051;28;19923;-73
2023/09/24 06:29:08;;;;;;;;;;;10.60;99.90;;;;;;5110046;28;19923;-74
2023/09/24 06:31:34;;;;;;;;;;;10.60;99.90;;;;;;5107832;28;19919;-74
2023/09/24 06:34:00;;;;;;;;;;;10.60;99.90;;;;;;5109666;28;19975;-74
2023/09/24 06:36:26;;;;;;;;;;;10.70;99.90;;;;;;5107701;28;20007;-73
2023/09/24 06:38:51;;;;;;;;;;;10.80;99.90;;;;;;5109595;28;20282;-74
2023/09/24 06:41:17;;;;;;;;;;;10.90;99.90;;;;;;5109946;28;20335;-74
2023/09/24 06:43:43;;;;;;;;;;;11.00;99.90;;;;;;5110187;27;19927;-74
2023/09/24 06:46:09;;;;;;;;;;;11.20;99.90;;;;;;5106996;28;19967;-74
2023/09/24 06:48:34;;;;;;;;;;;11.40;99.90;;;;;;5091941;28;20015;-74
2023/09/24 06:51:07;;;;;;;;;;;11.40;99.90;;;;;;5085945;28;19965;-73
2023/09/24 06:53:33;;;;;;;;;;;11.10;99.90;;;;;;5096097;28;19919;-74
2023/09/24 06:55:58;;;;;;;;;;;11.50;99.90;;;;;;5100412;28;20464;-74
2023/09/24 06:58:24;;;;;;;;;;;11.50;99.90;;;;;;5094542;28;19980;-74
2023/09/24 07:00:49;;;;;;;;;;;11.60;99.90;;;;;;5103331;28;19920;-74
2023/09/24 07:03:15;;;;;;;;;;;11.80;99.90;;;;;;5095097;28;19946;-73
2023/09/24 07:05:41;;;;;;;;;;;;;;;;;;5099350;28;20289;-74
2023/09/24 07:08:07;;;;;;;;;;;;;;;;;;5103971;28;19971;-73
2023/09/24 07:10:33;;;;;;;;;;;11.80;99.90;;;;;;5108362;28;19919;-74
2023/09/24 07:12:58;;;;;;;;;;;11.90;99.90;;;;;;5101301;28;19930;-74
2023/09/24 07:15:24;;;;;;;;;;;11.90;99.90;;;;;;5103604;28;19944;-74
2023/09/24 07:17:49;;;;;;;;;;;12.00;99.90;;;;;;5105817;28;19931;-73
2023/09/24 07:20:15;;;;;;;;;;;12.00;99.90;;;;;;5108311;28;20644;-73
2023/09/24 07:22:41;;;;;;;;;;;12.10;99.90;;;;;;5101159;28;19970;-74
2023/09/24 07:25:07;;;;;;;;;;;12.10;99.90;;;;;;5109121;28;20458;-74
2023/09/24 07:27:33;;;;;;;;;;;12.20;99.90;;;;;;5102521;28;19927;-73
2023/09/24 07:29:59;;;;;;;;;;;12.20;99.90;;;;;;5106949;28;19964;-73
2023/09/24 07:32:24;;;;;;;;;;;12.30;99.90;;;;;;5100513;28;20334;-73
2023/09/24 07:34:50;;;;;;;;;;;12.40;99.90;;;;;;5104982;28;19975;-73
2023/09/24 07:37:16;;;;;;;;;;;12.40;99.90;;;;;;5106780;28;20456;-74
2023/09/24 07:39:42;;;;;;;;;;;12.40;99.90;;;;;;5100035;28;19923;-73
2023/09/24 07:42:07;;;;;;;;;;;12.50;99.90;;;;;;5098851;28;19928;-73
2023/09/24 07:44:33;;;;;;;;;;;12.50;99.90;;;;;;5102902;28;20350;-73
2023/09/24 07:46:59;;;;;;;;;;;12.50;99.90;;;;;;5098587;28;20396;-74
2023/09/24 07:49:24;;;;;;;;;;;12.60;99.90;;;;;;5099320;28;19977;-73
2023/09/24 07:51:50;;;;;;;;;;;12.70;99.90;;;;;;5100896;28;19924;-73
2023/09/24 07:54:16;;;;;;;;;;;12.80;99.90;;;;;;5103357;27;19928;-73
2023/09/24 07:56:42;;;;;;;;;;;12.80;99.90;;;;;;5103602;28;19951;-73
2023/09/24 07:59:11;;;;;;;;;;;12.90;99.90;;;;;;5099808;28;19924;-74
2023/09/24 08:01:37;;;;;;;;;;;12.90;99.90;;;;;;5105304;28;19963;-74
2023/09/24 08:04:03;;;;;;;;;;;13.00;99.90;;;;;;5093469;28;19924;-74
2023/09/24 08:06:29;;;;;;;;;;;13.00;99.90;;;;;;5100542;28;19985;-74
2023/09/24 08:08:58;;;;;;;;;;;13.10;99.90;;;;;;5103773;28;20587;-75
2023/09/24 08:11:23;;;;;;;;;;;13.10;99.90;;;;;;5100550;28;20378;-74
2023/09/24 08:13:49;;;;;;;;;;;13.20;99.90;;;;;;5101370;28;19981;-74
2023/09/24 08:16:15;;;;;;;;;;;13.20;99.90;;;;;;5094888;27;19949;-74
2023/09/24 08:18:40;;;;;;;;;;;13.30;99.90;;;;;;5107239;28;19923;-74
2023/09/24 08:21:06;;;;;;;;;;;13.40;99.90;;;;;;5106129;28;20396;-74
2023/09/24 08:23:32;;;;;;;;;;;13.40;99.90;;;;;;5100524;27;19993;-74
2023/09/24 08:25:59;;;;;;;;;;;13.40;99.90;;;;;;5104139;27;20561;-74
2023/09/24 08:28:25;;;;;;;;;;;13.40;99.90;;;;;;5106420;27;19964;-74
2023/09/24 08:30:51;;;;;;;;;;;13.40;99.90;;;;;;5103612;27;19930;-74
2023/09/24 08:33:16;;;;;;;;;;;13.50;99.90;;;;;;5106138;28;20019;-74
2023/09/24 08:35:42;;;;;;;;;;;13.50;99.90;;;;;;5102586;27;19970;-74
2023/09/24 08:38:08;;;;;;;;;;;13.60;99.90;;;;;;5100533;27;20016;-74
2023/09/24 08:40:33;;;;;;;;;;;13.70;99.90;;;;;;5102085;28;20486;-74
2023/09/24 08:42:59;;;;;;;;;;;13.70;99.90;;;;;;5099385;27;20333;-74
2023/09/24 08:45:29;;;;;;;;;;;13.70;99.90;;;;;;5106595;28;19924;-74
2023/09/24 08:47:54;;;;;;;;;;;13.80;99.90;;;;;;5098223;28;20332;-74
2023/09/24 08:50:21;;;;;;;;;;;13.90;99.90;;;;;;5106117;28;19924;-74
2023/09/24 08:52:47;;;;;;;;;;;13.90;99.90;;;;;;5103391;28;20264;-74
2023/09/24 08:55:13;;;;;;;;;;;14.00;99.90;;;;;;5104010;28;19942;-73
2023/09/24 08:57:39;;;;;;;;;;;14.20;99.90;;;;;;5101135;28;19928;-74
2023/09/24 09:00:06;;;;;;;;;;;14.20;99.90;;;;;;5097344;28;19946;-74
2023/09/24 09:02:32;;;;;;;;;;;14.30;99.90;;;;;;5104506;28;19923;-73
2023/09/24 09:04:59;;;;;;;;;;;14.30;99.90;;;;;;5101307;28;20365;-73
2023/09/24 09:07:24;;;;;;;;;;;14.40;99.90;;;;;;5105994;27;20257;-74
2023/09/24 09:09:54;;;;;;;;;;;14.50;99.90;;;;;;5102208;28;19923;-73
2023/09/24 09:12:20;;;;;;;;;;;14.60;99.90;;;;;;5096424;28;19924;-73
2023/09/24 09:14:46;;;;;;;;;;;14.80;99.90;;;;;;5096425;27;20296;-73
2023/09/24 09:17:11;;;;;;;;;;;14.80;99.90;;;;;;5101995;27;19927;-74
2023/09/24 09:20:03;;;;;;;;;;;14.90;99.90;;;;;;5105379;27;20464;-73
2023/09/24 09:22:29;;;;;;;;;;;15.00;99.90;;;;;;5098345;27;19924;-74
2023/09/24 09:25:04;;;;;;;;;;;15.10;99.90;;;;;;5100053;27;20297;-74
2023/09/24 09:27:33;;;;;;;;;;;15.10;99.90;;;;;;5102062;27;20389;-74
2023/09/24 09:30:09;;;;;;;;;;;15.20;99.90;;;;;;5102824;27;20029;-74
2023/09/24 09:32:36;;;;;;;;;;;15.30;99.90;;;;;;5107955;27;20779;-74
2023/09/24 09:35:03;;;;;;;;;;;15.30;99.90;;;;;;5102307;27;19924;-74
2023/09/24 09:37:28;;;;;;;;;;;15.40;99.90;;;;;;5100360;27;19935;-74
2023/09/24 09:39:54;;;;;;;;;;;15.40;99.90;;;;;;5105440;27;19977;-74
2023/09/24 09:42:21;;;;;;;;;;;15.40;99.90;;;;;;5098500;27;19981;-74
2023/09/24 09:44:49;;;;;;;;;;;15.50;99.90;;;;;;5107861;27;20491;-73
2023/09/24 09:47:17;;;;;;;;;;;15.50;99.90;;;;;;5106947;27;19934;-74
2023/09/24 09:49:45;;;;;;;;;;;15.60;99.90;;;;;;5101744;27;20026;-74
2023/09/24 09:52:11;;;;;;;;;;;15.60;99.90;;;;;;5104877;27;19924;-74
2023/09/24 09:54:38;;;;;;;;;;;15.70;99.90;;;;;;5107713;27;19935;-74
2023/09/24 09:57:04;;;;;;;;;;;15.70;99.90;;;;;;5106339;27;20010;-74
2023/09/24 09:59:32;;;;;;;;;;;15.80;99.90;;;;;;5102917;27;19939;-76
2023/09/24 10:01:59;;;;;;;;;;;15.90;99.90;;;;;;5100373;27;19931;-73
2023/09/24 10:04:25;;;;;;;;;;;15.90;99.90;;;;;;5100139;27;19919;-74
2023/09/24 10:06:51;;;;;;;;;;;16.00;99.90;;;;;;5110299;27;19952;-74
2023/09/24 10:09:26;;;;;;;;;;;16.10;99.90;;;;;;5099920;27;19919;-74
2023/09/24 10:11:52;;;;;;;;;;;16.10;99.90;;;;;;5102969;27;20266;-76
2023/09/24 10:14:35;;;;;;;;;;;16.20;99.90;;;;;;5107624;27;20383;-74
2023/09/24 10:17:15;;;;;;;;;;;16.30;99.90;;;;;;5104200;27;20414;-75
2023/09/24 10:19:59;;;;;;;;;;;16.30;99.90;;;;;;5105544;27;20350;-74
2023/09/24 10:22:28;;;;;;;;;;;16.30;99.90;;;;;;5110233;27;20324;-74
2023/09/24 10:24:54;;;;;;;;;;;16.40;99.90;;;;;;5110791;27;20026;-74
2023/09/24 10:27:20;;;;;;;;;;;16.50;99.90;;;;;;5117897;27;20063;-74
2023/09/24 10:29:55;;;;;;;;;;;16.60;99.90;;;;;;5106573;27;19924;-73
2023/09/24 10:32:21;;;;;;;;;;;16.70;99.90;;;;;;5103442;27;20445;-74
2023/09/24 10:34:57;;;;;;;;;;;16.70;99.90;;;;;;5109815;27;20429;-74
2023/09/24 10:37:37;;;;;;;;;;;16.70;99.90;;;;;;5105501;27;19957;-73
2023/09/24 10:42:30;;;;;;;;;;;16.80;99.90;;;;;;5107404;27;19999;-74
2023/09/24 10:45:08;;;;;;;;;;;16.90;99.90;;;;;;5106206;27;20366;-74
2023/09/24 10:47:40;;;;;;;;;;;17.00;99.90;;;;;;5104457;27;19920;-74
2023/09/24 10:50:19;;;;;;;;;;;17.00;99.90;;;;;;5103939;27;20388;-73
2023/09/24 10:52:49;;;;;;;;;;;16.20;99.90;;;;;;5089517;27;20350;-74
2023/09/24 10:55:15;;;;;;;;;;;17.20;99.90;;;;;;5087577;27;19920;-74
2023/09/24 10:57:45;;;;;;;;;;;17.30;99.90;;;;;;5086933;27;19984;-75
2023/09/24 11:00:14;;;;;;;;;;;17.40;99.90;;;;;;5092508;27;19919;-74
2023/09/24 11:02:40;;;;;;;;;;;17.40;99.90;;;;;;5103120;27;19936;-74
2023/09/24 11:05:09;;;;;;;;;;;17.50;99.90;;;;;;5110972;27;20284;-74
2023/09/24 11:07:35;;;;;;;;;;;17.50;99.90;;;;;;5108263;27;19923;-74
2023/09/24 11:10:00;;;;;;;;;;;17.60;99.90;;;;;;5110579;27;19920;-73
2023/09/24 11:12:26;;;;;;;;;;;17.80;99.90;;;;;;5112074;27;20586;-72
2023/09/24 11:14:55;;;;;;;;;;;17.90;99.90;;;;;;5111521;27;20406;-73
2023/09/24 11:17:21;;;;;;;;;;;18.00;99.90;;;;;;5110051;28;20004;-73
2023/09/24 11:19:48;;;;;;;;;;;18.10;99.90;;;;;;5106936;28;19928;-73
2023/09/24 11:22:17;;;;;;;;;;;18.20;99.90;;;;;;5112315;27;19992;-74
2023/09/24 11:24:43;;;;;;;;;;;18.20;99.90;;;;;;5112709;28;19927;-74
2023/09/24 11:27:08;;;;;;;;;;;18.30;99.90;;;;;;5116475;28;19976;-74
2023/09/24 11:29:35;;;;;;;;;;;18.30;99.90;;;;;;5114570;28;19920;-74
2023/09/24 11:32:00;;;;;;;;;;;18.40;99.90;;;;;;5109440;27;19963;-74
2023/09/24 11:34:26;;;;;;;;;;;18.30;99.90;;;;;;5098323;28;20322;-75
2023/09/24 11:36:53;;;;;;;;;;;18.30;99.90;;;;;;5109435;28;19927;-75
2023/09/24 11:39:19;;;;;;;;;;;18.30;99.90;;;;;;5107887;28;19919;-75
2023/09/24 11:41:45;;;;;;;;;;;18.30;99.90;;;;;;5107608;27;19927;-75
2023/09/24 11:44:11;;;;;;;;;;;18.40;99.90;;;;;;5105452;28;20270;-74
2023/09/24 11:46:38;;;;;;;;;;;18.30;99.90;;;;;;5110474;28;19969;-73
2023/09/24 11:49:04;;;;;;;;;;;18.30;99.90;;;;;;5107676;28;19946;-73
2023/09/24 11:51:30;;;;;;;;;;;18.30;99.90;;;;;;5107396;28;19942;-73
2023/09/24 11:53:56;;;;;;;;;;;18.20;99.90;;;;;;5109613;27;19920;-74
2023/09/24 11:56:22;;;;;;;;;;;18.20;99.90;;;;;;5101146;28;20353;-73
2023/09/24 11:58:48;;;;;;;;;;;18.20;99.90;;;;;;5109585;27;20068;-73
2023/09/24 12:01:14;;;;;;;;;;;18.30;99.90;;;;;;5114125;27;19919;-73
2023/09/24 12:03:42;;;;;;;;;;;18.40;99.90;;;;;;5118672;27;20343;-74
2023/09/24 12:06:07;;;;;;;;;;;18.40;99.90;;;;;;5117177;27;20004;-74
2023/09/24 12:08:33;;;;;;;;;;;18.40;99.90;;;;;;5112333;27;20260;-73
2023/09/24 12:10:59;;;;;;;;;;;18.40;99.90;;;;;;5106627;27;19934;-73
2023/09/24 12:13:24;;;;;;;;;;;18.40;99.90;;;;;;5116311;27;20438;-73
2023/09/24 12:15:50;;;;;;;;;;;18.50;99.90;;;;;;5105784;27;19964;-73
2023/09/24 12:18:16;;;;;;;;;;;18.50;99.90;;;;;;5112781;27;19930;-73
2023/09/24 12:20:43;;;;;;;;;;;18.60;99.90;;;;;;5103301;27;19919;-73
2023/09/24 12:23:09;;;;;;;;;;;18.60;99.90;;;;;;5114524;27;19930;-73
2023/09/24 12:25:35;;;;;;;;;;;18.70;99.90;;;;;;5111494;27;19965;-74
2023/09/24 12:28:06;;;;;;;;;;;18.90;99.90;;;;;;5117253;27;20370;-74
2023/09/24 12:30:31;;;;;;;;;;;19.10;99.90;;;;;;5112022;27;19920;-73
2023/09/24 12:32:57;;;;;;;;;;;19.10;99.90;;;;;;5112264;27;19924;-74
2023/09/24 12:35:24;;;;;;;;;;;19.20;99.90;;;;;;5107268;28;20089;-73
2023/09/24 12:37:49;;;;;;;;;;;19.40;99.90;;;;;;5110871;27;20013;-74
2023/09/24 12:40:15;;;;;;;;;;;19.70;99.90;;;;;;5109336;27;20018;-74
2023/09/24 12:42:41;;;;;;;;;;;20.00;99.90;;;;;;5109479;27;19919;-74
2023/09/24 12:45:10;;;;;;;;;;;20.10;99.90;;;;;;5109978;27;19956;-73
2023/09/24 12:47:36;;;;;;;;;;;20.10;99.90;;;;;;5106299;27;20389;-74
2023/09/24 12:50:09;;;;;;;;;;;20.10;99.90;;;;;;5115367;27;20362;-74
2023/09/24 12:52:35;;;;;;;;;;;20.10;99.90;;;;;;5113686;27;19959;-74
2023/09/24 12:55:02;;;;;;;;;;;20.10;99.90;;;;;;5114954;27;19931;-74
2023/09/24 12:57:28;;;;;;;;;;;20.20;99.90;;;;;;5105917;27;19967;-73
2023/09/24 12:59:53;;;;;;;;;;;20.20;99.90;;;;;;5111447;27;19975;-74
2023/09/24 13:02:19;;;;;;;;;;;20.30;99.90;;;;;;5111997;27;19934;-74
2023/09/24 13:04:44;;;;;;;;;;;20.20;99.90;;;;;;5109577;27;19923;-74
2023/09/24 13:07:10;;;;;;;;;;;20.30;99.90;;;;;;5106625;27;19967;-74
2023/09/24 13:09:36;;;;;;;;;;;20.20;99.90;;;;;;5112182;27;19923;-74
2023/09/24 13:12:01;;;;;;;;;;;20.20;99.90;;;;;;5118203;27;20435;-72
2023/09/24 13:14:27;;;;;;;;;;;20.30;99.90;;;;;;5112462;27;19937;-73
2023/09/24 13:16:53;;;;;;;;;;;20.30;99.90;;;;;;5116794;27;20266;-74
2023/09/24 13:19:18;;;;;;;;;;;20.50;99.90;;;;;;5102092;27;19923;-74
2023/09/24 13:21:44;;;;;;;;;;;20.70;99.90;;;;;;5108537;27;19928;-74
2023/09/24 13:24:09;;;;;;;;;;;21.10;99.90;;;;;;5106576;27;19937;-74
2023/09/24 13:26:43;;;;;;;;;;;21.30;99.90;;;;;;5112778;27;19939;-74
2023/09/24 13:29:08;;;;;;;;;;;21.40;99.90;;;;;;5102399;27;20040;-74
2023/09/24 13:31:34;;;;;;;;;;;21.40;99.90;;;;;;5110772;27;20488;-75
2023/09/24 13:34:03;;;;;;;;;;;21.40;99.90;;;;;;5108415;27;19924;-74
2023/09/24 13:36:32;;;;;;;;;;;21.30;99.90;;;;;;5115277;27;20563;-74
2023/09/24 13:38:59;;;;;;;;;;;21.20;99.90;;;;;;5110693;27;20022;-75
2023/09/24 13:41:26;;;;;;;;;;;21.30;99.90;;;;;;5110310;27;19923;-73
2023/09/24 13:43:52;;;;;;;;;;;21.40;99.90;;;;;;5108595;27;19935;-74
2023/09/24 13:46:17;;;;;;;;;;;22.30;99.90;;;;;;5109996;27;19928;-77
2023/09/24 13:48:43;;;;;;;;;;;22.00;99.90;;;;;;5098122;27;20782;-74
2023/09/24 13:51:09;;;;;;;;;;;22.30;99.90;;;;;;5107808;27;19934;-74
2023/09/24 13:53:34;;;;;;;;;;;22.50;99.90;;;;;;5110187;27;19928;-74
2023/09/24 13:56:00;;;;;;;;;;;22.60;99.90;;;;;;5112132;27;19923;-74
2023/09/24 13:58:25;;;;;;;;;;;22.70;99.90;;;;;;5109518;27;19938;-74
2023/09/24 14:00:53;;;;;;;;;;;23.00;99.90;;;;;;5104894;27;19928;-74
2023/09/24 14:03:19;;;;;;;;;;;23.10;99.90;;;;;;5102889;27;19931;-74
2023/09/24 14:05:45;;;;;;;;;;;23.00;99.90;;;;;;5106926;27;19923;-74
2023/09/24 14:13:39;;;;;;;;;;;23.40;99.90;;;;;;5106390;27;20015;-75
2023/09/24 14:16:10;;;;;;;;;;;23.70;99.90;;;;;;5106860;27;20385;-74
2023/09/24 14:18:36;;;;;;;;;;;23.70;99.90;;;;;;5105339;27;19924;-75
2023/09/24 14:21:07;;;;;;;;;;;23.70;99.40;;;;;;5097850;27;19923;-75
2023/09/24 14:23:33;;;;;;;;;;;24.10;99.90;;;;;;5099254;27;19990;-75